Flight Track Log - Related Links

Times and Time Zones

All times are in EDT time to prevent confusion due to time zone crossing. See the UAL4234 flight status page for this flight to view local times or setup timezone preferences in your user account.

Time Position Orientation Groundspeed Altitude Reporting Facility
EDT Latitude Longitude Course Direction KTS MPH feet Rate Location/Type
Mon 09:05:50 AM 29.9592 -95.3392 90° East 159 183 800  Level Houston Center
Mon 09:06:15 AM 29.9492 -95.3208 122° Southeast 168 193 1,300 1,459 Climbing Houston Center
Mon 09:07:04 AM 29.9228 -95.2761 124° Southeast 203 234 2,600 1,459 Climbing Houston Center
Mon 09:08:06 AM 29.8842 -95.2089 124° Southeast 244 281 4,000 968 Climbing Houston Center
Mon 09:09:00 AM 29.9834 -94.7992 90° East  Level FlightAware Approximate
Mon 09:09:08 AM 29.8431 -95.1400 125° Southeast 258 297 4,600  Level Houston Center
Mon 09:10:00 AM 29.9833 -94.6657 90° East  Level FlightAware Approximate
Mon 09:10:09 AM 29.8014 -95.0692 124° Southeast 263 303 7,400  Level Houston Center
Mon 09:11:00 AM 29.9834 -94.5321 90° East  Level FlightAware Approximate
Mon 09:11:11 AM 29.8147 -94.9861 79° East 268 308 9,700  Level Houston Center
Mon 09:12:14 AM 29.8394 -94.8958 72° East 292 336 10,900 1,065 Climbing Houston Center
Mon 09:13:15 AM 29.8667 -94.7903 73° East 339 390 11,900 1,122 Climbing Houston Center
Mon 09:14:17 AM 29.8969 -94.6772 73° East 367 422 13,200 1,355 Climbing Houston Center
Mon 09:15:19 AM 29.9356 -94.5344 73° East 387 445 14,700 1,355 Climbing Houston Center
Mon 09:16:21 AM 29.9686 -94.4100 73° East 399 459 16,000 1,220 Climbing Houston Center
Mon 09:17:22 AM 29.9986 -94.2864 74° East 402 463 17,200 1,073 Climbing Houston Center
Mon 09:18:24 AM 30.0153 -94.1575 81° East 408 470 18,200 1,113 Climbing Houston Center
Mon 09:19:26 AM 30.0317 -94.0256 82° East 417 480 19,500 1,258 Climbing Houston Center
Mon 09:20:28 AM 30.0478 -93.8939 82° East 419 482 20,800 1,355 Climbing Houston Center
Mon 09:21:30 AM 30.0658 -93.7364 82° East 417 480 22,300 1,210 Climbing Houston Center
Mon 09:22:32 AM 30.0822 -93.6028 82° East 422 486 23,300 968 Climbing Houston Center
Mon 09:23:34 AM 30.0992 -93.4647 82° East 436 502 24,300 968 Climbing Houston Center
Mon 09:24:36 AM 30.1150 -93.3242 83° East 444 511 25,300 919 Climbing Houston Center
Mon 09:25:38 AM 30.1322 -93.1803 82° East 453 521 26,200 1,024 Climbing Houston Center
Mon 09:26:39 AM 30.1889 -93.0206 68° East 452 520 27,400 1,073 Climbing Houston Center
Mon 09:27:41 AM 30.2561 -92.8967 58° Northeast 456 525 28,400 919 Climbing Houston Center
Mon 09:28:43 AM 30.3250 -92.7708 58° Northeast 463 533 29,300 919 Climbing Houston Center
Mon 09:29:45 AM 30.3933 -92.6444 58° Northeast 465 535 30,300 968 Climbing Houston Center
Mon 09:30:47 AM 30.4636 -92.5167 57° Northeast 471 542 31,300 919 Climbing Houston Center
Mon 09:31:49 AM 30.5342 -92.3861 58° Northeast 477 549 32,200 823 Climbing Houston Center
Mon 09:32:51 AM 30.6208 -92.2269 58° Northeast 486 559 33,000 390 Climbing Houston Center
Mon 09:33:52 AM 30.6950 -92.0872 58° Northeast 505 581 33,000  Level Houston Center
Mon 09:34:54 AM 30.7719 -91.9428 58° Northeast 524 603 33,000  Level Houston Center
Mon 09:35:56 AM 30.8481 -91.8003 58° Northeast 523 602 33,000  Level Houston Center
Mon 09:36:58 AM 30.9219 -91.6597 58° Northeast 522 601 33,000 194 Level Houston Center
Mon 09:38:00 AM 31.0144 -91.4842 58° Northeast 528 608 33,400 435 Climbing Houston Center
Mon 09:39:02 AM 31.0919 -91.3372 58° Northeast 530 610 33,900 484 Climbing Houston Center
Mon 09:40:04 AM 31.1694 -91.1886 59° Northeast 535 616 34,400 484 Climbing Houston Center
Mon 09:41:06 AM 31.2467 -91.0403 59° Northeast 534 615 34,900 290 Climbing Houston Center
Mon 09:42:08 AM 31.3256 -90.8906 58° Northeast 537 618 35,000 48 Climbing Houston Center
Mon 09:43:10 AM 31.4053 -90.7369 59° Northeast 541 623 35,000  Level Houston Center
Mon 09:44:12 AM 31.4828 -90.5856 59° Northeast 543 625 35,000  Level Houston Center
Mon 09:45:14 AM 31.5742 -90.4061 59° Northeast 540 621 35,000  Level Houston Center
Mon 09:46:16 AM 31.6497 -90.2581 59° Northeast 534 615 35,000  Level Houston Center
Mon 09:47:18 AM 31.7256 -90.1103 59° Northeast 529 609 35,000  Level Houston Center
Mon 09:48:20 AM 31.8019 -89.9608 59° Northeast 531 611 35,000  Level Houston Center
Mon 09:49:20 AM 31.8836 -89.7994 59° Northeast 534 615 35,000  Level Memphis Center
Mon 09:50:20 AM 31.9600 -89.6447 60° Northeast 534 615 35,000  Level Memphis Center
Mon 09:51:20 AM 32.0175 -89.4875 67° East 524 603 35,000  Level Memphis Center
Mon 09:52:20 AM 32.0706 -89.3375 67° East 524 603 35,000  Level Memphis Center
Mon 09:53:20 AM 32.1256 -89.1750 68° East 524 603 35,000  Level Memphis Center
Mon 09:54:20 AM 32.1783 -89.0147 69° East 529 609 35,000  Level Memphis Center
Mon 09:55:20 AM 32.2369 -88.8494 67° East 535 616 35,000  Level Memphis Center
Mon 09:57:08 AM 32.3406 -88.5472 68° East 553 636 35,000  Level Atlanta Center
Mon 09:58:08 AM 32.3922 -88.3878 69° East 534 615 35,000  Level Atlanta Center
Mon 09:59:07 AM 32.4458 -88.2253 69° East 529 609 35,000  Level Atlanta Center
Mon 10:00:07 AM 32.4992 -88.0653 68° East 522 601 35,000  Level Atlanta Center
Mon 10:01:08 AM 32.5478 -87.9150 69° East 531 611 35,000  Level Atlanta Center
Mon 10:02:08 AM 32.6006 -87.7569 68° East 528 608 35,000 300 Level Atlanta Center
Mon 10:03:08 AM 32.6389 -87.5933 74° East 518 596 35,600 850 Climbing Atlanta Center
Mon 10:04:08 AM 32.6333 -87.4228 92° East 510 587 36,700 700 Climbing Atlanta Center
Mon 10:05:08 AM 32.6211 -87.2522 95° East 510 587 37,000 150 Climbing Atlanta Center
Mon 10:06:08 AM 32.6275 -87.0775 87° East 517 595 37,000  Level Atlanta Center
Mon 10:07:08 AM 32.6669 -86.9108 74° East 511 588 37,000  Level Atlanta Center
Mon 10:08:08 AM 32.7064 -86.7419 74° East 525 604 37,000  Level Atlanta Center
Mon 10:09:08 AM 32.7600 -86.5781 69° East 525 604 37,000  Level Atlanta Center
Mon 10:10:08 AM 32.8217 -86.4069 67° East 525 604 37,000  Level Atlanta Center
Mon 10:11:08 AM 32.8811 -86.2478 66° East 519 597 37,000  Level Atlanta Center
Mon 10:12:08 AM 32.9361 -86.0833 68° East 525 604 37,000  Level Atlanta Center
Mon 10:13:08 AM 32.9928 -85.9261 67° East 520 598 37,000  Level Atlanta Center
Mon 10:14:08 AM 33.0494 -85.7661 67° East 520 598 37,000  Level Atlanta Center
Mon 10:15:08 AM 33.1058 -85.6061 67° East 520 598 37,000  Level Atlanta Center
Mon 10:16:08 AM 33.1536 -85.4706 67° East 504 580 37,000  Level Atlanta Center
Mon 10:17:08 AM 33.2094 -85.3100 67° East 504 580 37,000  Level Atlanta Center
Mon 10:18:08 AM 33.2675 -85.1369 68° East 514 592 37,000  Level Atlanta Center
Mon 10:19:08 AM 33.3231 -84.9761 68° East 514 592 37,000  Level Atlanta Center
Mon 10:20:08 AM 33.3786 -84.8200 67° East 508 585 37,000  Level Atlanta Center
Mon 10:21:08 AM 33.4317 -84.6586 68° East 514 592 37,000  Level Atlanta Center
Mon 10:22:08 AM 33.4867 -84.4947 68° East 514 592 37,000  Level Atlanta Center
Mon 10:23:08 AM 33.5414 -84.3353 68° East 514 592 37,000  Level Atlanta Center
Mon 10:24:08 AM 33.5958 -84.1736 68° East 514 592 37,000  Level Atlanta Center
Mon 10:25:08 AM 33.6481 -84.0114 69° East 514 592 37,000 -650 Level Atlanta Center
Mon 10:26:08 AM 33.7044 -83.8492 67° East 514 592 35,700 -1,000 Descending Atlanta Center
Mon 10:27:08 AM 33.7561 -83.6864 69° East 525 604 35,000 -700 Descending Atlanta Center
Mon 10:28:08 AM 33.8100 -83.5289 68° East 525 604 34,300 -1,000 Descending Atlanta Center
Mon 10:29:08 AM 33.8633 -83.3683 68° East 512 589 33,000 -1,300 Descending Atlanta Center
Mon 10:30:08 AM 33.9167 -83.2078 68° East 512 589 31,700 -1,400 Descending Atlanta Center
Mon 10:31:08 AM 33.9656 -83.0519 69° East 512 589 30,200 -1,500 Descending Atlanta Center
Mon 10:32:08 AM 34.0164 -82.8961 68° East 507 583 28,700 -1,500 Descending Atlanta Center
Mon 10:33:08 AM 34.0669 -82.7397 69° East 502 578 27,200 -1,300 Descending Atlanta Center
Mon 10:34:08 AM 34.1072 -82.6036 70° East 488 562 26,100 -1,150 Descending Atlanta Center
Mon 10:35:08 AM 34.1617 -82.4397 68° East 483 556 24,900 -1,100 Descending Atlanta Center
Mon 10:36:08 AM 34.2097 -82.2906 69° East 473 544 23,900 -1,450 Descending Atlanta Center
Mon 10:37:08 AM 34.2597 -82.1489 67° East 467 537 22,000 -1,950 Descending Atlanta Center
Mon 10:38:08 AM 34.3414 -82.0411 47° Northeast 442 509 20,000 -2,000 Descending Atlanta Center
Mon 10:39:08 AM 34.4211 -81.9386 47° Northeast 437 503 18,000 -1,850 Descending Atlanta Center
Mon 10:40:08 AM 34.5050 -81.8358 45° Northeast 422 486 16,300 -1,868 Descending Atlanta Center
Mon 10:40:54 AM 34.5661 -81.7611 45° Northeast 412 474 14,700 -2,026 Descending Atlanta Center
Mon 10:41:25 AM 34.6069 -81.7094 46° Northeast 405 466 13,700 -1,541 Descending Atlanta Center
Mon 10:42:08 AM 34.6497 -81.6528 47° Northeast 395 455 12,800 -1,500 Descending Atlanta Center
Mon 10:42:25 AM 34.6803 -81.6139 46° Northeast 381 438 12,200 -900 Descending Atlanta Center
Mon 10:43:08 AM 34.7208 -81.5622 46° Northeast 381 438 11,900 -175 Descending Atlanta Center
Mon 10:44:08 AM 34.7797 -81.4819 48° Northeast 330 380 11,900 76 Level Atlanta Center
Mon 10:44:27 AM 34.8064 -81.4533 41° Northeast 302 348 12,000  Climbing Atlanta Center
Mon 10:45:08 AM 34.8389 -81.4069 50° Northeast 311 358 11,900  Descending Atlanta Center
Mon 10:45:33 AM 34.8714 -81.3678 45° Northeast 305 351 12,000  Climbing Atlanta Center
Mon 10:46:08 AM 34.8978 -81.3342 46° Northeast 299 344 11,900  Descending Atlanta Center
Mon 10:46:34 AM 34.9300 -81.2900 48° Northeast 305 351 12,000  Climbing Atlanta Center
Mon 10:47:08 AM 34.9544 -81.2589 46° Northeast 299 344 11,900  Descending Atlanta Center
Mon 10:47:35 AM 34.9889 -81.2169 45° Northeast 304 350 12,000 -400 Climbing Atlanta Center
Mon 10:48:08 AM 35.0131 -81.1806 51° Northeast 305 351 11,500 -1,222 Descending Atlanta Center
Mon 10:48:29 AM 35.0436 -81.1442 44° Northeast 309 356 10,900 -1,300 Descending Atlanta Center
Mon 10:49:08 AM 35.0781 -81.0997 47° Northeast 299 344 10,200 -1,180 Descending Atlanta Center
Mon 10:49:30 AM 35.1025 -81.0761 38° Northeast 295 339 9,700 -1,200 Descending Atlanta Center
Mon 10:50:08 AM 35.1458 -81.0619 15° North 270 311 9,000 -787 Descending Atlanta Center
Mon 10:50:31 AM 35.1753 -81.0683 350° North 247 284 8,900 -1,000 Descending Atlanta Center
Mon 10:51:32 AM 35.2422 -81.0736 356° North 237 273 7,600 -1,785 Descending Atlanta Center
Mon 10:52:32 AM 35.3114 -81.0814 355° North 246 283 5,300 -2,079 Descending Atlanta Center
Mon 10:53:39 AM 35.3625 -81.0386 34° Northeast 251 289 3,200 -1,881 Descending Atlanta Center

Login

Don't have an account? Register now (free) for customized features, flight alerts, and more!